LOT25CG EPKT-LDZA
Flight info
| Callsign | LOT25CG |
|---|---|
| Flight time | 0h 54m |
| Altitude | 34000 |
| Route | TUSIN DCT BILNA DCT KUFIK DCT VAMOG DCT NEKIN DCT LULUD |
| Aircraft | B738/M-SDE2E3FGHIRWXY/LB1 |
Departure
| Time | 2026-05-04 19:33 |
|---|---|
| Airport | Katowice Wojciech Korfanty International Airport (EPKT) |
Arrival
| Time | 2026-05-04 20:27 |
|---|---|
| Airport | Zagreb Franjo Tuđman International Airport (LDZA) |
| Time | Latitude | Longitude | Altitude | Speed | Heading |
|---|---|---|---|---|---|
| 2026-05-04 19:14 | 50.47183 | 19.07212 | 999 ft | 0 kts | 180° |
| 2026-05-04 19:24 | 50.47198 | 19.07212 | 999 ft | 4 kts | 180° |
| 2026-05-04 19:24 | 50.47220 | 19.07213 | 1000 ft | 4 kts | 173° |
| 2026-05-04 19:24 | 50.47234 | 19.07198 | 997 ft | 4 kts | 95° |
| 2026-05-04 19:25 | 50.47235 | 19.07158 | 997 ft | 4 kts | 90° |
| 2026-05-04 19:25 | 50.47235 | 19.07149 | 997 ft | 1 kts | 90° |
| 2026-05-04 19:28 | 50.47235 | 19.07171 | 997 ft | 5 kts | 90° |
| 2026-05-04 19:28 | 50.47235 | 19.07266 | 997 ft | 12 kts | 90° |
| 2026-05-04 19:28 | 50.47234 | 19.07399 | 1002 ft | 12 kts | 90° |
| 2026-05-04 19:29 | 50.47234 | 19.07543 | 1002 ft | 14 kts | 90° |
| 2026-05-04 19:29 | 50.47234 | 19.07703 | 1001 ft | 16 kts | 90° |
| 2026-05-04 19:29 | 50.47234 | 19.07891 | 1002 ft | 18 kts | 90° |
| 2026-05-04 19:29 | 50.47233 | 19.08102 | 1001 ft | 21 kts | 90° |
| 2026-05-04 19:30 | 50.47232 | 19.08331 | 1003 ft | 21 kts | 90° |
| 2026-05-04 19:30 | 50.47236 | 19.08543 | 997 ft | 17 kts | 70° |
| 2026-05-04 19:30 | 50.47348 | 19.08585 | 997 ft | 19 kts | 0° |
| 2026-05-04 19:30 | 50.47423 | 19.08670 | 1002 ft | 14 kts | 86° |
| 2026-05-04 19:31 | 50.47423 | 19.08831 | 1000 ft | 16 kts | 90° |
| 2026-05-04 19:31 | 50.47422 | 19.09030 | 1002 ft | 20 kts | 90° |
| 2026-05-04 19:31 | 50.47421 | 19.09272 | 1000 ft | 22 kts | 90° |
| 2026-05-04 19:31 | 50.47482 | 19.09390 | 998 ft | 15 kts | 5° |
| 2026-05-04 19:32 | 50.47583 | 19.09363 | 999 ft | 15 kts | 307° |
| 2026-05-04 19:32 | 50.47597 | 19.09133 | 1001 ft | 50 kts | 270° |
| 2026-05-04 19:32 | 50.47598 | 19.08091 | 996 ft | 138 kts | 271° |
| 2026-05-04 19:32 | 50.47609 | 19.06278 | 1395 ft | 179 kts | 270° |
| 2026-05-04 19:33 | 50.47665 | 19.04285 | 2510 ft | 183 kts | 268° |
| 2026-05-04 19:33 | 50.47756 | 19.02351 | 3855 ft | 168 kts | 270° |
| 2026-05-04 19:33 | 50.47864 | 19.00593 | 5005 ft | 159 kts | 270° |
| 2026-05-04 19:33 | 50.47772 | 18.98858 | 5714 ft | 168 kts | 244° |
| 2026-05-04 19:34 | 50.46901 | 18.97432 | 6008 ft | 200 kts | 208° |
| 2026-05-04 19:34 | 50.45554 | 18.96512 | 6248 ft | 227 kts | 205° |
| 2026-05-04 19:34 | 50.44056 | 18.95531 | 6703 ft | 239 kts | 205° |
| 2026-05-04 19:34 | 50.42493 | 18.94516 | 7336 ft | 245 kts | 204° |
| 2026-05-04 19:35 | 50.40883 | 18.93472 | 7818 ft | 260 kts | 204° |
| 2026-05-04 19:35 | 50.39165 | 18.92357 | 8491 ft | 272 kts | 204° |
| 2026-05-04 19:35 | 50.37410 | 18.91220 | 9454 ft | 274 kts | 204° |
| 2026-05-04 19:35 | 50.35632 | 18.90067 | 10348 ft | 279 kts | 204° |
| 2026-05-04 19:36 | 50.33765 | 18.88853 | 10691 ft | 304 kts | 204° |
| 2026-05-04 19:36 | 50.31737 | 18.87534 | 11003 ft | 326 kts | 204° |
| 2026-05-04 19:36 | 50.29611 | 18.86155 | 11715 ft | 333 kts | 204° |
| 2026-05-04 19:36 | 50.27488 | 18.84781 | 12792 ft | 328 kts | 204° |
| 2026-05-04 19:37 | 50.25351 | 18.83398 | 13476 ft | 337 kts | 204° |
| 2026-05-04 19:37 | 50.23161 | 18.81981 | 14240 ft | 341 kts | 204° |
| 2026-05-04 19:37 | 50.20958 | 18.80556 | 14995 ft | 345 kts | 204° |
| 2026-05-04 19:37 | 50.18729 | 18.79116 | 15733 ft | 349 kts | 204° |
| 2026-05-04 19:38 | 50.16496 | 18.77675 | 16443 ft | 353 kts | 204° |
| 2026-05-04 19:38 | 50.14213 | 18.76202 | 17174 ft | 357 kts | 204° |
| 2026-05-04 19:38 | 50.11900 | 18.74712 | 17901 ft | 361 kts | 204° |
| 2026-05-04 19:38 | 50.09563 | 18.73208 | 18553 ft | 366 kts | 204° |
| 2026-05-04 19:39 | 50.07229 | 18.71707 | 19126 ft | 371 kts | 204° |
| 2026-05-04 19:39 | 50.04788 | 18.70139 | 19690 ft | 376 kts | 204° |
| 2026-05-04 19:39 | 50.02352 | 18.68576 | 20267 ft | 381 kts | 204° |
| 2026-05-04 19:39 | 49.99891 | 18.66999 | 20837 ft | 385 kts | 204° |
| 2026-05-04 19:40 | 49.97389 | 18.65397 | 21376 ft | 391 kts | 204° |
| 2026-05-04 19:40 | 49.94855 | 18.63777 | 21918 ft | 395 kts | 204° |
| 2026-05-04 19:40 | 49.92296 | 18.62142 | 22443 ft | 400 kts | 204° |
| 2026-05-04 19:40 | 49.89706 | 18.60489 | 22974 ft | 405 kts | 204° |
| 2026-05-04 19:41 | 49.87079 | 18.58815 | 23498 ft | 410 kts | 204° |
| 2026-05-04 19:41 | 49.84435 | 18.57249 | 23917 ft | 415 kts | 198° |
| 2026-05-04 19:41 | 49.81608 | 18.56261 | 24386 ft | 418 kts | 192° |
| 2026-05-04 19:41 | 49.78725 | 18.55481 | 24860 ft | 421 kts | 191° |
| 2026-05-04 19:42 | 49.75827 | 18.54723 | 25286 ft | 424 kts | 191° |
| 2026-05-04 19:42 | 49.72899 | 18.53951 | 25723 ft | 428 kts | 191° |
| 2026-05-04 19:42 | 49.69952 | 18.53157 | 26148 ft | 431 kts | 192° |
| 2026-05-04 19:42 | 49.66986 | 18.52345 | 26566 ft | 434 kts | 192° |
| 2026-05-04 19:43 | 49.64039 | 18.51529 | 26977 ft | 437 kts | 192° |
| 2026-05-04 19:43 | 49.60997 | 18.50683 | 27387 ft | 440 kts | 192° |
| 2026-05-04 19:43 | 49.58020 | 18.49854 | 27761 ft | 442 kts | 192° |
| 2026-05-04 19:43 | 49.54969 | 18.49006 | 28154 ft | 445 kts | 192° |
| 2026-05-04 19:44 | 49.51892 | 18.48152 | 28531 ft | 448 kts | 192° |
| 2026-05-04 19:44 | 49.48811 | 18.47299 | 28924 ft | 451 kts | 192° |
| 2026-05-04 19:44 | 49.45712 | 18.46442 | 29286 ft | 454 kts | 192° |
| 2026-05-04 19:44 | 49.42596 | 18.45581 | 29640 ft | 456 kts | 192° |
| 2026-05-04 19:45 | 49.39511 | 18.44704 | 30058 ft | 456 kts | 194° |
| 2026-05-04 19:45 | 49.36451 | 18.43394 | 30493 ft | 453 kts | 200° |
| 2026-05-04 19:45 | 49.33472 | 18.41843 | 30963 ft | 450 kts | 201° |
| 2026-05-04 19:45 | 49.30510 | 18.40237 | 31407 ft | 449 kts | 201° |
| 2026-05-04 19:46 | 49.27574 | 18.38640 | 31805 ft | 448 kts | 201° |
| 2026-05-04 19:46 | 49.24631 | 18.37058 | 32219 ft | 448 kts | 201° |
| 2026-05-04 19:46 | 49.21727 | 18.35518 | 32646 ft | 446 kts | 201° |
| 2026-05-04 19:46 | 49.18797 | 18.33982 | 33063 ft | 445 kts | 201° |
| 2026-05-04 19:47 | 49.15870 | 18.32460 | 33409 ft | 445 kts | 201° |
| 2026-05-04 19:47 | 49.12896 | 18.30921 | 33735 ft | 446 kts | 201° |
| 2026-05-04 19:47 | 49.09988 | 18.29417 | 34034 ft | 447 kts | 202° |
| 2026-05-04 19:48 | 49.04156 | 18.25954 | 34015 ft | 449 kts | 205° |
| 2026-05-04 19:48 | 48.98443 | 18.22296 | 34004 ft | 441 kts | 205° |
| 2026-05-04 19:49 | 48.92770 | 18.18695 | 34023 ft | 442 kts | 205° |
| 2026-05-04 19:49 | 48.87059 | 18.15129 | 34017 ft | 444 kts | 205° |
| 2026-05-04 19:50 | 48.81370 | 18.11610 | 34009 ft | 444 kts | 205° |
| 2026-05-04 19:50 | 48.75638 | 18.08078 | 33998 ft | 445 kts | 205° |
| 2026-05-04 19:51 | 48.69887 | 18.04544 | 34003 ft | 445 kts | 205° |
| 2026-05-04 19:51 | 48.64141 | 18.01020 | 33998 ft | 446 kts | 205° |
| 2026-05-04 19:52 | 48.58381 | 17.97495 | 33991 ft | 446 kts | 204° |
| 2026-05-04 19:52 | 48.52629 | 17.93984 | 33986 ft | 445 kts | 204° |
| 2026-05-04 19:53 | 48.46919 | 17.90507 | 33995 ft | 445 kts | 204° |
| 2026-05-04 19:53 | 48.41187 | 17.87026 | 33994 ft | 444 kts | 204° |
| 2026-05-04 19:54 | 48.35457 | 17.83553 | 33992 ft | 444 kts | 204° |
| 2026-05-04 19:54 | 48.29717 | 17.80084 | 33986 ft | 444 kts | 204° |
| 2026-05-04 19:55 | 48.23986 | 17.76627 | 33987 ft | 444 kts | 204° |
| 2026-05-04 19:55 | 48.18242 | 17.73172 | 33985 ft | 444 kts | 204° |
| 2026-05-04 19:56 | 48.12507 | 17.69730 | 33978 ft | 444 kts | 204° |
| 2026-05-04 19:56 | 48.06807 | 17.66318 | 33976 ft | 444 kts | 204° |
| 2026-05-04 19:57 | 48.01073 | 17.62893 | 33974 ft | 443 kts | 204° |
| 2026-05-04 19:57 | 47.95338 | 17.59476 | 33976 ft | 443 kts | 204° |
| 2026-05-04 19:57 | 47.92384 | 17.58113 | 33954 ft | 447 kts | 191° |
| 2026-05-04 19:58 | 47.89282 | 17.57727 | 33987 ft | 448 kts | 184° |
| 2026-05-04 19:58 | 47.83040 | 17.57649 | 33970 ft | 449 kts | 181° |
| 2026-05-04 19:59 | 47.76780 | 17.57680 | 34003 ft | 450 kts | 181° |
| 2026-05-04 19:59 | 47.70501 | 17.57729 | 34004 ft | 451 kts | 181° |
| 2026-05-04 20:00 | 47.64252 | 17.57778 | 34005 ft | 452 kts | 181° |
| 2026-05-04 20:00 | 47.57951 | 17.57828 | 34008 ft | 453 kts | 181° |
| 2026-05-04 20:01 | 47.52711 | 17.57871 | 33753 ft | 457 kts | 181° |
| 2026-05-04 20:01 | 47.49503 | 17.57894 | 33388 ft | 452 kts | 181° |
| 2026-05-04 20:01 | 47.46369 | 17.57915 | 32819 ft | 448 kts | 181° |
| 2026-05-04 20:01 | 47.43279 | 17.57932 | 32470 ft | 440 kts | 181° |
| 2026-05-04 20:02 | 47.40233 | 17.57945 | 32056 ft | 435 kts | 181° |
| 2026-05-04 20:02 | 47.37222 | 17.57954 | 31664 ft | 430 kts | 181° |
| 2026-05-04 20:02 | 47.34283 | 17.57958 | 31282 ft | 425 kts | 181° |
| 2026-05-04 20:02 | 47.31335 | 17.57957 | 30897 ft | 421 kts | 181° |
| 2026-05-04 20:03 | 47.28445 | 17.57701 | 30570 ft | 413 kts | 192° |
| 2026-05-04 20:03 | 47.25757 | 17.56368 | 30331 ft | 408 kts | 209° |
| 2026-05-04 20:03 | 47.23337 | 17.54090 | 30137 ft | 417 kts | 218° |
| 2026-05-04 20:03 | 47.20985 | 17.51506 | 29895 ft | 424 kts | 217° |
| 2026-05-04 20:04 | 47.18599 | 17.48986 | 29616 ft | 426 kts | 216° |
| 2026-05-04 20:04 | 47.16190 | 17.46493 | 29328 ft | 422 kts | 216° |
| 2026-05-04 20:04 | 47.13787 | 17.44031 | 29043 ft | 419 kts | 216° |
| 2026-05-04 20:04 | 47.11406 | 17.41600 | 28760 ft | 417 kts | 216° |
| 2026-05-04 20:05 | 47.09056 | 17.39202 | 28492 ft | 415 kts | 216° |
| 2026-05-04 20:05 | 47.06687 | 17.36785 | 28228 ft | 413 kts | 216° |
| 2026-05-04 20:05 | 47.04312 | 17.34360 | 27953 ft | 411 kts | 216° |
| 2026-05-04 20:05 | 47.01996 | 17.31997 | 27691 ft | 410 kts | 216° |
| 2026-05-04 20:06 | 46.99659 | 17.29614 | 27363 ft | 406 kts | 216° |
| 2026-05-04 20:06 | 46.97350 | 17.27261 | 26922 ft | 402 kts | 216° |
| 2026-05-04 20:06 | 46.95056 | 17.24927 | 26468 ft | 399 kts | 216° |
| 2026-05-04 20:06 | 46.92788 | 17.22621 | 26019 ft | 395 kts | 216° |
| 2026-05-04 20:07 | 46.90535 | 17.20332 | 25566 ft | 392 kts | 216° |
| 2026-05-04 20:07 | 46.88302 | 17.18066 | 25129 ft | 389 kts | 215° |
| 2026-05-04 20:07 | 46.86092 | 17.15825 | 24702 ft | 386 kts | 216° |
| 2026-05-04 20:07 | 46.83918 | 17.13623 | 24257 ft | 384 kts | 216° |
| 2026-05-04 20:08 | 46.81721 | 17.11400 | 23793 ft | 382 kts | 215° |
| 2026-05-04 20:08 | 46.79544 | 17.09200 | 23302 ft | 381 kts | 215° |
| 2026-05-04 20:08 | 46.77372 | 17.07007 | 22813 ft | 377 kts | 215° |
| 2026-05-04 20:08 | 46.75217 | 17.04834 | 22352 ft | 374 kts | 215° |
| 2026-05-04 20:09 | 46.73090 | 17.02690 | 21902 ft | 371 kts | 215° |
| 2026-05-04 20:09 | 46.70973 | 17.00558 | 21462 ft | 367 kts | 215° |
| 2026-05-04 20:09 | 46.68884 | 16.98457 | 21027 ft | 364 kts | 215° |
| 2026-05-04 20:09 | 46.66808 | 16.96372 | 20600 ft | 361 kts | 215° |
| 2026-05-04 20:10 | 46.64744 | 16.94300 | 20179 ft | 358 kts | 215° |
| 2026-05-04 20:10 | 46.62702 | 16.92251 | 19744 ft | 356 kts | 215° |
| 2026-05-04 20:10 | 46.60665 | 16.90210 | 19322 ft | 353 kts | 214° |
| 2026-05-04 20:10 | 46.58649 | 16.88192 | 18905 ft | 351 kts | 214° |
| 2026-05-04 20:11 | 46.56640 | 16.86183 | 18467 ft | 350 kts | 214° |
| 2026-05-04 20:11 | 46.54643 | 16.84187 | 17812 ft | 353 kts | 214° |
| 2026-05-04 20:11 | 46.52613 | 16.82161 | 16990 ft | 360 kts | 214° |
| 2026-05-04 20:11 | 46.50543 | 16.80096 | 16373 ft | 360 kts | 214° |
| 2026-05-04 20:12 | 46.48488 | 16.78048 | 15917 ft | 356 kts | 214° |
| 2026-05-04 20:12 | 46.46456 | 16.76024 | 15473 ft | 352 kts | 214° |
| 2026-05-04 20:12 | 46.44445 | 16.74022 | 14994 ft | 349 kts | 214° |
| 2026-05-04 20:12 | 46.42453 | 16.72043 | 14535 ft | 345 kts | 214° |
| 2026-05-04 20:13 | 46.40499 | 16.70102 | 13900 ft | 337 kts | 214° |
| 2026-05-04 20:13 | 46.38609 | 16.68193 | 13515 ft | 323 kts | 214° |
| 2026-05-04 20:13 | 46.36800 | 16.66348 | 12899 ft | 316 kts | 214° |
| 2026-05-04 20:13 | 46.35002 | 16.64511 | 12128 ft | 316 kts | 215° |
| 2026-05-04 20:14 | 46.33205 | 16.62679 | 11444 ft | 314 kts | 215° |
| 2026-05-04 20:14 | 46.31429 | 16.60868 | 10810 ft | 311 kts | 215° |
| 2026-05-04 20:14 | 46.29693 | 16.59102 | 10272 ft | 305 kts | 216° |
| 2026-05-04 20:14 | 46.27984 | 16.57366 | 9940 ft | 296 kts | 216° |
| 2026-05-04 20:15 | 46.26334 | 16.55690 | 9635 ft | 283 kts | 216° |
| 2026-05-04 20:15 | 46.24757 | 16.54091 | 9365 ft | 273 kts | 216° |
| 2026-05-04 20:15 | 46.23203 | 16.52515 | 9125 ft | 271 kts | 215° |
| 2026-05-04 20:15 | 46.21657 | 16.50949 | 8882 ft | 271 kts | 215° |
| 2026-05-04 20:16 | 46.20117 | 16.49388 | 8630 ft | 269 kts | 215° |
| 2026-05-04 20:16 | 46.18585 | 16.47838 | 8372 ft | 268 kts | 215° |
| 2026-05-04 20:16 | 46.17061 | 16.46298 | 8133 ft | 266 kts | 215° |
| 2026-05-04 20:16 | 46.15546 | 16.44769 | 7906 ft | 265 kts | 214° |
| 2026-05-04 20:17 | 46.14052 | 16.43258 | 7655 ft | 259 kts | 214° |
| 2026-05-04 20:17 | 46.12608 | 16.41800 | 7433 ft | 255 kts | 214° |
| 2026-05-04 20:17 | 46.11158 | 16.40340 | 7216 ft | 252 kts | 214° |
| 2026-05-04 20:17 | 46.09730 | 16.38902 | 6977 ft | 249 kts | 214° |
| 2026-05-04 20:18 | 46.08318 | 16.37480 | 6756 ft | 245 kts | 214° |
| 2026-05-04 20:18 | 46.06935 | 16.36089 | 6539 ft | 242 kts | 214° |
| 2026-05-04 20:18 | 46.05564 | 16.34711 | 6314 ft | 239 kts | 214° |
| 2026-05-04 20:18 | 46.04215 | 16.33357 | 6092 ft | 236 kts | 214° |
| 2026-05-04 20:19 | 46.02856 | 16.32048 | 5863 ft | 233 kts | 206° |
| 2026-05-04 20:19 | 46.01306 | 16.31477 | 5669 ft | 230 kts | 187° |
| 2026-05-04 20:19 | 45.99713 | 16.31415 | 5450 ft | 229 kts | 182° |
| 2026-05-04 20:19 | 45.98130 | 16.31426 | 5272 ft | 225 kts | 182° |
| 2026-05-04 20:20 | 45.96577 | 16.31432 | 5086 ft | 222 kts | 183° |
| 2026-05-04 20:20 | 45.95043 | 16.31427 | 4884 ft | 216 kts | 183° |
| 2026-05-04 20:20 | 45.93572 | 16.31419 | 4666 ft | 209 kts | 184° |
| 2026-05-04 20:20 | 45.92126 | 16.31406 | 4466 ft | 206 kts | 184° |
| 2026-05-04 20:21 | 45.90703 | 16.31288 | 4266 ft | 204 kts | 197° |
| 2026-05-04 20:21 | 45.89594 | 16.30187 | 4090 ft | 190 kts | 231° |
| 2026-05-04 20:21 | 45.87900 | 16.27573 | 3899 ft | 170 kts | 227° |
| 2026-05-04 20:22 | 45.87073 | 16.26336 | 3708 ft | 175 kts | 227° |
| 2026-05-04 20:22 | 45.86213 | 16.25036 | 3471 ft | 179 kts | 228° |
| 2026-05-04 20:22 | 45.85356 | 16.23734 | 3234 ft | 178 kts | 229° |
| 2026-05-04 20:22 | 45.84514 | 16.22453 | 2994 ft | 175 kts | 229° |
| 2026-05-04 20:23 | 45.83682 | 16.21186 | 2771 ft | 176 kts | 229° |
| 2026-05-04 20:23 | 45.82842 | 16.19907 | 2527 ft | 178 kts | 229° |
| 2026-05-04 20:23 | 45.81992 | 16.18614 | 2306 ft | 177 kts | 229° |
| 2026-05-04 20:23 | 45.81169 | 16.17361 | 2066 ft | 166 kts | 229° |
| 2026-05-04 20:24 | 45.80404 | 16.16197 | 1849 ft | 154 kts | 229° |
| 2026-05-04 20:24 | 45.79713 | 16.15143 | 1687 ft | 138 kts | 229° |
| 2026-05-04 20:24 | 45.79077 | 16.14173 | 1504 ft | 135 kts | 229° |
| 2026-05-04 20:24 | 45.78432 | 16.13190 | 1316 ft | 134 kts | 228° |
| 2026-05-04 20:25 | 45.77798 | 16.12229 | 1119 ft | 132 kts | 228° |
| 2026-05-04 20:25 | 45.77176 | 16.11275 | 910 ft | 129 kts | 227° |
| 2026-05-04 20:25 | 45.76559 | 16.10329 | 810 ft | 132 kts | 227° |
| 2026-05-04 20:25 | 45.75926 | 16.09358 | 629 ft | 133 kts | 227° |
| 2026-05-04 20:26 | 45.75302 | 16.08412 | 435 ft | 129 kts | 227° |
| 2026-05-04 20:26 | 45.74706 | 16.07507 | 361 ft | 116 kts | 226° |
| 2026-05-04 20:26 | 45.74258 | 16.06824 | 362 ft | 72 kts | 227° |
| 2026-05-04 20:26 | 45.73989 | 16.06415 | 363 ft | 52 kts | 227° |
| 2026-05-04 20:27 | 45.73838 | 16.06269 | 362 ft | 11 kts | 145° |
| 2026-05-04 20:27 | 45.73778 | 16.06348 | 359 ft | 12 kts | 136° |
| 2026-05-04 20:27 | 45.73740 | 16.06399 | 361 ft | 0 kts | 139° |
| 2026-05-04 20:27 | 45.73739 | 16.06400 | 361 ft | 1 kts | 135° |
| 2026-05-04 20:28 | 45.73741 | 16.06426 | 362 ft | 7 kts | 71° |
| 2026-05-04 20:28 | 45.73793 | 16.06511 | 358 ft | 16 kts | 47° |
| 2026-05-04 20:28 | 45.73879 | 16.06643 | 361 ft | 20 kts | 46° |
| 2026-05-04 20:28 | 45.73977 | 16.06791 | 358 ft | 23 kts | 46° |
| 2026-05-04 20:29 | 45.74095 | 16.06969 | 358 ft | 26 kts | 48° |
| 2026-05-04 20:29 | 45.74197 | 16.07126 | 360 ft | 13 kts | 47° |
| 2026-05-04 20:29 | 45.74188 | 16.07243 | 366 ft | 15 kts | 135° |
| 2026-05-04 20:29 | 45.74104 | 16.07357 | 360 ft | 18 kts | 137° |
| 2026-05-04 20:30 | 45.74069 | 16.07479 | 358 ft | 14 kts | 55° |
| 2026-05-04 20:30 | 45.74135 | 16.07581 | 358 ft | 15 kts | 46° |
| 2026-05-04 20:30 | 45.74186 | 16.07663 | 358 ft | 3 kts | 68° |
| 2026-05-04 20:30 | 45.74177 | 16.07686 | 358 ft | 4 kts | 133° |
| 2026-05-04 20:31 | 45.74155 | 16.07716 | 357 ft | 4 kts | 136° |
| 2026-05-04 20:31 | 45.74134 | 16.07744 | 363 ft | 3 kts | 137° |
| 2026-05-04 20:31 | 45.74129 | 16.07750 | 361 ft | 1 kts | 137° |
| 2026-05-04 20:31 | 45.74127 | 16.07753 | 362 ft | 0 kts | 136° |